Time;durP1;ratioP1;P1;durP2;ratioP2;P2;SDS_P1;SDS_P2;PMS_P1;PMS_P2;Temp;Humidity;BMP_temperature;BMP_pressure;BME280_temperature;BME280_humidity;BME280_pressure;Samples;Min_cycle;Max_cycle;Signal;HPM_P1;HPM_P2
2022/04/13 00:02:19;;;;;;;6.25;1.83;;;15.10;95.00;;;;;;5032383;28;20589;-62
2022/04/13 00:04:49;;;;;;;3.30;1.88;;;15.00;95.20;;;;;;5032818;28;20201;-62
2022/04/13 00:07:17;;;;;;;5.20;1.50;;;15.10;95.30;;;;;;5043718;28;20220;-62
2022/04/13 00:09:44;;;;;;;1.65;1.42;;;15.00;95.10;;;;;;5053081;28;20661;-62
2022/04/13 00:12:12;;;;;;;3.20;1.63;;;14.90;95.20;;;;;;5052560;28;20231;-61
2022/04/13 00:14:40;;;;;;;1.80;1.50;;;15.00;95.70;;;;;;5052709;28;20254;-62
2022/04/13 00:17:08;;;;;;;3.22;1.73;;;15.00;95.30;;;;;;5051200;28;20231;-62
2022/04/13 00:19:36;;;;;;;2.08;1.38;;;15.10;96.10;;;;;;5053031;28;20282;-62
2022/04/13 00:22:05;;;;;;;3.03;1.33;;;15.10;96.30;;;;;;5041873;28;20213;-61
2022/04/13 00:24:33;;;;;;;2.75;1.45;;;15.20;96.70;;;;;;5032475;28;20654;-61
2022/04/13 00:27:01;;;;;;;2.67;1.50;;;15.30;95.90;;;;;;5032706;28;20224;-62
2022/04/13 00:29:30;;;;;;;1.75;1.65;;;15.30;95.70;;;;;;5033197;28;20559;-62
2022/04/13 00:31:58;;;;;;;3.10;1.63;;;15.30;95.00;;;;;;5032452;28;20215;-61
2022/04/13 00:34:26;;;;;;;1.98;1.50;;;15.10;95.10;;;;;;5032618;28;20192;-60
2022/04/13 00:36:57;;;;;;;1.75;1.50;;;15.00;95.10;;;;;;5031899;28;20801;-61
2022/04/13 00:39:27;;;;;;;1.65;1.50;;;14.90;95.20;;;;;;5032607;28;20292;-62
2022/04/13 00:41:59;;;;;;;2.70;1.48;;;14.90;95.40;;;;;;5032364;28;20220;-61
2022/04/13 00:44:28;;;;;;;1.58;1.42;;;14.90;95.90;;;;;;5032281;28;20197;-61
2022/04/13 00:46:57;;;;;;;1.75;1.63;;;14.90;95.40;;;;;;5031715;28;20244;-61
2022/04/13 00:49:25;;;;;;;2.33;1.45;;;14.90;95.70;;;;;;5032826;28;20231;-61
2022/04/13 00:51:53;;;;;;;2.28;1.58;;;15.00;96.10;;;;;;5032417;28;20618;-62
2022/04/13 00:54:22;;;;;;;2.05;1.52;;;15.00;96.40;;;;;;5032075;28;20723;-61
2022/04/13 00:56:54;;;;;;;2.38;1.55;;;15.00;95.70;;;;;;5031098;28;20239;-61
2022/04/13 00:59:25;;;;;;;3.05;1.85;;;15.00;95.70;;;;;;5032137;28;20582;-62
2022/04/13 01:01:56;;;;;;;1.98;1.58;;;15.00;96.30;;;;;;5032172;28;20216;-62
2022/04/13 01:04:28;;;;;;;2.47;1.45;;;15.00;96.00;;;;;;5032285;28;20197;-62
2022/04/13 01:06:57;;;;;;;1.80;1.55;;;15.10;96.50;;;;;;5031469;28;20244;-62
2022/04/13 01:09:26;;;;;;;1.50;1.38;;;15.10;96.80;;;;;;5031555;28;20705;-61
2022/04/13 01:11:55;;;;;;;4.03;1.40;;;15.10;95.60;;;;;;5031522;28;20604;-59
2022/04/13 01:14:23;;;;;;;1.38;1.27;;;15.00;95.80;;;;;;5031774;28;20207;-62
2022/04/13 01:16:51;;;;;;;1.30;1.10;;;15.00;96.50;;;;;;5031341;28;20287;-61
2022/04/13 01:19:19;;;;;;;2.20;1.20;;;14.90;95.70;;;;;;5031348;28;20311;-61
2022/04/13 01:21:52;;;;;;;1.55;1.33;;;14.80;95.90;;;;;;5031645;28;20199;-61
2022/04/13 01:24:22;;;;;;;2.55;1.60;;;14.80;96.00;;;;;;5031311;28;20197;-61
2022/04/13 01:26:50;;;;;;;1.88;1.70;;;14.70;96.30;;;;;;5030913;28;20236;-62
2022/04/13 01:29:18;;;;;;;2.58;1.20;;;14.80;96.00;;;;;;5031715;28;20244;-62
2022/04/13 01:31:46;;;;;;;1.27;1.17;;;14.80;97.20;;;;;;5031417;28;20280;-62
2022/04/13 01:34:14;;;;;;;1.90;1.50;;;14.80;96.60;;;;;;5031013;28;20200;-61
2022/04/13 01:36:42;;;;;;;2.78;1.50;;;14.90;96.40;;;;;;5031603;28;20267;-61
2022/04/13 01:39:10;;;;;;;2.15;1.55;;;14.90;97.00;;;;;;5031329;28;20307;-62
2022/04/13 01:41:39;;;;;;;2.33;1.80;;;14.90;95.90;;;;;;5031386;28;20224;-62
2022/04/13 01:44:07;;;;;;;1.50;1.33;;;14.80;96.10;;;;;;5030673;28;20359;-61
2022/04/13 01:46:34;;;;;;;1.70;1.55;;;14.90;95.80;;;;;;5031282;28;20213;-62
2022/04/13 01:49:03;;;;;;;2.38;1.60;;;14.80;95.90;;;;;;5031256;28;20255;-62
2022/04/13 01:51:31;;;;;;;1.63;1.50;;;14.80;96.50;;;;;;5031056;28;20200;-61
2022/04/13 01:53:59;;;;;;;3.30;1.55;;;14.80;96.10;;;;;;5030744;28;20196;-60
2022/04/13 01:56:27;;;;;;;1.50;1.40;;;14.90;97.20;;;;;;5030896;28;20317;-61
2022/04/13 01:58:56;;;;;;;2.20;1.50;;;14.90;96.60;;;;;;5031506;28;20280;-61
2022/04/13 02:01:24;;;;;;;2.20;1.90;;;14.80;96.10;;;;;;5031125;28;20227;-61
2022/04/13 02:03:52;;;;;;;2.95;1.60;;;14.60;96.30;;;;;;5030416;28;20212;-61
2022/04/13 02:06:20;;;;;;;2.17;1.98;;;14.50;96.30;;;;;;5033965;28;20247;-61
2022/04/13 02:08:48;;;;;;;2.50;1.60;;;14.50;96.70;;;;;;5051198;28;20227;-61
2022/04/13 02:11:16;;;;;;;1.35;1.15;;;14.60;96.90;;;;;;5050838;28;20227;-61
2022/04/13 02:13:44;;;;;;;2.03;1.92;;;14.50;97.90;;;;;;5050265;28;20282;-61
2022/04/13 02:16:13;;;;;;;2.22;1.58;;;14.40;97.30;;;;;;5050911;28;20258;-61
2022/04/13 02:18:41;;;;;;;3.63;1.77;;;14.30;97.50;;;;;;5050653;28;20291;-61
2022/04/13 02:21:09;;;;;;;3.78;1.67;;;14.20;97.50;;;;;;5039400;28;20204;-61
2022/04/13 02:23:37;;;;;;;1.60;1.50;;;14.20;97.50;;;;;;5030273;28;20286;-61
2022/04/13 02:26:05;;;;;;;2.67;2.40;;;14.30;97.70;;;;;;5030630;28;20697;-62
2022/04/13 02:28:32;;;;;;;2.28;1.90;;;14.30;97.40;;;;;;5031009;28;20200;-62
2022/04/13 02:31:00;;;;;;;1.85;1.60;;;14.30;97.50;;;;;;5030660;28;20697;-62
2022/04/13 02:33:31;;;;;;;2.05;1.73;;;14.30;98.40;;;;;;5030268;28;20243;-62
2022/04/13 02:35:59;;;;;;;3.38;2.20;;;14.40;97.90;;;;;;5030999;28;20221;-62
2022/04/13 02:38:27;;;;;;;3.35;1.65;;;14.30;97.30;;;;;;5033802;28;20236;-62
2022/04/13 02:40:55;;;;;;;2.60;1.80;;;14.40;97.80;;;;;;5034718;28;20224;-62
2022/04/13 02:43:24;;;;;;;1.50;1.40;;;14.30;98.00;;;;;;5033900;28;20212;-61
2022/04/13 02:45:52;;;;;;;3.90;2.00;;;14.40;99.00;;;;;;5034611;28;20299;-61
2022/04/13 02:48:20;;;;;;;1.40;1.30;;;14.40;97.90;;;;;;5034739;28;20205;-62
2022/04/13 02:50:49;;;;;;;3.85;1.42;;;14.30;98.50;;;;;;5034693;28;20193;-62
2022/04/13 02:53:17;;;;;;;2.00;1.80;;;14.30;97.70;;;;;;5033697;28;20193;-61
2022/04/13 02:55:45;;;;;;;2.10;2.00;;;14.30;99.20;;;;;;5033981;28;20674;-61
2022/04/13 02:58:13;;;;;;;2.63;1.75;;;14.30;98.90;;;;;;5034368;28;20229;-61
2022/04/13 03:00:42;;;;;;;3.75;1.98;;;14.40;98.90;;;;;;5034494;28;20192;-61
2022/04/13 03:03:10;;;;;;;1.52;1.42;;;14.30;99.40;;;;;;5033398;28;20216;-61
2022/04/13 03:05:38;;;;;;;3.70;1.80;;;14.30;99.30;;;;;;5034545;28;20224;-61
2022/04/13 03:08:08;;;;;;;2.50;1.70;;;14.30;98.70;;;;;;5051954;28;20200;-62
2022/04/13 03:10:36;;;;;;;2.85;1.73;;;14.20;99.90;;;;;;5054151;28;20241;-61
2022/04/13 03:13:04;;;;;;;1.70;1.60;;;14.20;99.70;;;;;;5034644;28;20262;-61
2022/04/13 03:15:32;;;;;;;2.33;2.13;;;14.20;98.60;;;;;;5034290;28;20270;-61
2022/04/13 03:18:00;;;;;;;2.25;2.00;;;14.10;98.50;;;;;;5034138;28;20735;-61
2022/04/13 03:20:28;;;;;;;2.97;2.03;;;14.00;98.60;;;;;;5034155;28;20240;-61
2022/04/13 03:22:56;;;;;;;3.17;1.60;;;13.90;99.10;;;;;;5033072;28;20197;-61
2022/04/13 03:25:26;;;;;;;3.30;1.90;;;13.90;99.80;;;;;;5033841;28;20243;-61
2022/04/13 03:27:54;;;;;;;2.40;1.52;;;13.90;99.70;;;;;;5033900;28;20201;-61
2022/04/13 03:30:23;;;;;;;1.92;1.75;;;14.00;99.90;;;;;;5014098;28;20225;-61
2022/04/13 03:32:51;;;;;;;1.98;1.58;;;13.90;99.90;;;;;;5013348;28;20196;-61
2022/04/13 03:35:19;;;;;;;2.30;1.65;;;14.00;99.90;;;;;;5014044;28;20204;-61
2022/04/13 03:37:47;;;;;;;3.25;2.00;;;14.00;99.90;;;;;;5013911;28;20594;-61
2022/04/13 03:40:15;;;;;;;2.03;1.75;;;14.10;99.90;;;;;;5013926;28;20244;-61
2022/04/13 03:42:44;;;;;;;2.70;1.70;;;14.10;99.90;;;;;;5013111;28;20200;-61
2022/04/13 03:45:13;;;;;;;3.90;1.58;;;14.20;99.90;;;;;;5016650;28;20258;-61
2022/04/13 03:47:42;;;;;;;1.60;1.50;;;14.10;99.90;;;;;;5033041;28;20610;-61
2022/04/13 03:50:11;;;;;;;1.40;1.30;;;14.10;99.90;;;;;;5033523;28;20205;-62
2022/04/13 03:52:39;;;;;;;2.55;1.77;;;14.00;99.90;;;;;;5032460;28;20200;-62
2022/04/13 03:55:09;;;;;;;2.65;1.88;;;13.90;99.90;;;;;;5033186;28;20822;-62
2022/04/13 03:57:37;;;;;;;2.90;2.10;;;13.90;99.90;;;;;;5034757;28;20693;-62
2022/04/13 04:00:09;;;;;;;2.03;1.80;;;13.90;99.90;;;;;;5033390;28;20185;-62
2022/04/13 04:02:37;;;;;;;2.40;2.20;;;13.80;99.90;;;;;;5032556;28;20618;-62
2022/04/13 04:05:06;;;;;;;2.10;2.00;;;13.90;99.90;;;;;;5033029;28;20690;-62
2022/04/13 04:07:34;;;;;;;3.47;1.80;;;13.90;99.90;;;;;;5033179;28;20288;-62
2022/04/13 04:10:02;;;;;;;2.13;1.90;;;13.80;99.90;;;;;;5033253;28;20235;-62
2022/04/13 04:12:30;;;;;;;3.40;1.70;;;13.80;99.90;;;;;;5032556;28;20780;-62
2022/04/13 04:15:01;;;;;;;4.40;2.20;;;13.70;99.90;;;;;;5033239;28;20224;-63
2022/04/13 04:17:30;;;;;;;2.40;2.20;;;13.70;99.90;;;;;;5033157;28;20666;-62
2022/04/13 04:19:58;;;;;;;2.25;1.92;;;13.60;99.90;;;;;;5033047;28;20236;-62
2022/04/13 04:22:26;;;;;;;3.78;2.03;;;13.60;99.90;;;;;;5032114;28;20224;-62
2022/04/13 04:24:54;;;;;;;2.92;1.58;;;13.60;99.90;;;;;;5033031;28;20244;-63
2022/04/13 04:27:22;;;;;;;2.10;1.55;;;13.60;99.90;;;;;;5032514;28;20227;-62
2022/04/13 04:29:50;;;;;;;2.17;1.90;;;13.60;99.90;;;;;;5032776;28;20221;-63
2022/04/13 04:32:18;;;;;;;2.35;2.20;;;13.60;99.90;;;;;;5031969;28;20197;-62
2022/04/13 04:34:47;;;;;;;3.30;2.15;;;13.50;99.90;;;;;;5032777;28;20749;-62
2022/04/13 04:37:15;;;;;;;2.38;2.13;;;13.40;99.90;;;;;;5031880;28;20248;-61
2022/04/13 04:39:43;;;;;;;2.33;2.10;;;13.40;99.90;;;;;;5032510;28;20263;-62
2022/04/13 04:42:11;;;;;;;2.42;2.05;;;13.50;99.90;;;;;;5032151;28;20255;-62
2022/04/13 04:44:39;;;;;;;2.20;2.00;;;13.40;99.90;;;;;;5032358;28;20736;-62
2022/04/13 04:47:07;;;;;;;2.17;2.00;;;13.50;99.90;;;;;;5032406;28;20244;-62
2022/04/13 04:49:35;;;;;;;2.83;2.40;;;13.50;99.90;;;;;;5032564;28;20275;-62
2022/04/13 04:52:05;;;;;;;2.90;2.25;;;13.50;99.90;;;;;;5031636;28;20205;-62
2022/04/13 04:54:33;;;;;;;2.13;1.92;;;13.40;99.90;;;;;;5032171;28;20232;-62
2022/04/13 04:57:00;;;;;;;3.67;2.42;;;13.30;99.90;;;;;;5031741;28;20236;-61
2022/04/13 04:59:28;;;;;;;4.38;2.40;;;13.30;99.90;;;;;;5031690;28;20662;-62
2022/04/13 05:01:56;;;;;;;3.78;1.98;;;13.30;99.90;;;;;;5031635;28;20198;-61
2022/04/13 05:04:24;;;;;;;2.08;1.80;;;13.30;99.90;;;;;;5032023;28;20223;-62
2022/04/13 05:06:52;;;;;;;2.30;2.10;;;13.30;99.90;;;;;;5039546;28;20259;-63
2022/04/13 05:09:22;;;;;;;2.30;1.88;;;13.40;99.90;;;;;;5051820;28;20196;-62
2022/04/13 05:11:50;;;;;;;2.20;1.88;;;13.40;99.90;;;;;;5041939;28;20651;-62
2022/04/13 05:14:18;;;;;;;2.10;1.83;;;13.40;99.90;;;;;;5051355;28;20629;-62
2022/04/13 05:16:46;;;;;;;2.50;2.30;;;13.50;99.90;;;;;;5035754;28;20220;-62
2022/04/13 05:19:15;;;;;;;3.42;2.30;;;13.50;99.90;;;;;;5030348;28;20223;-63
2022/04/13 05:21:43;;;;;;;2.63;2.42;;;13.50;99.90;;;;;;5030725;28;20656;-62
2022/04/13 05:24:11;;;;;;;3.28;2.35;;;13.50;99.90;;;;;;5029556;28;20287;-62
2022/04/13 05:26:40;;;;;;;5.20;2.30;;;13.40;99.90;;;;;;5030563;28;20221;-62
2022/04/13 05:29:08;;;;;;;2.38;2.17;;;13.50;99.90;;;;;;5030387;28;20220;-62
2022/04/13 05:31:36;;;;;;;2.28;1.98;;;13.40;99.90;;;;;;5030543;28;20192;-61
2022/04/13 05:34:04;;;;;;;2.58;2.38;;;13.40;99.90;;;;;;5026276;28;20201;-61
2022/04/13 05:36:32;;;;;;;3.28;2.65;;;13.30;99.90;;;;;;5030555;28;20212;-62
2022/04/13 05:39:00;;;;;;;1.95;1.75;;;13.30;99.90;;;;;;5030128;28;20217;-62
2022/04/13 05:41:28;;;;;;;5.78;2.83;;;13.20;99.90;;;;;;5030418;28;20232;-61
2022/04/13 05:43:57;;;;;;;2.40;2.20;;;13.20;99.90;;;;;;5030100;28;20224;-62
2022/04/13 05:46:25;;;;;;;3.95;2.45;;;13.20;99.90;;;;;;5030789;28;20293;-61
2022/04/13 05:48:53;;;;;;;2.33;2.13;;;13.20;99.90;;;;;;5030007;28;20617;-62
2022/04/13 05:51:21;;;;;;;3.00;2.53;;;13.10;99.90;;;;;;5030075;28;20255;-61
2022/04/13 05:53:49;;;;;;;2.78;2.30;;;13.20;99.90;;;;;;5029652;28;20612;-61
2022/04/13 05:56:16;;;;;;;2.75;2.45;;;13.20;99.90;;;;;;5025847;28;20256;-62
2022/04/13 05:58:44;;;;;;;3.15;2.30;;;13.20;99.90;;;;;;5030571;28;20204;-63
2022/04/13 06:01:13;;;;;;;2.60;2.40;;;13.20;99.90;;;;;;5030747;28;20204;-62
2022/04/13 06:03:41;;;;;;;2.90;2.50;;;13.30;99.90;;;;;;5029574;28;20670;-62
2022/04/13 06:06:10;;;;;;;4.78;2.42;;;13.30;99.90;;;;;;5030000;28;20757;-64
2022/04/13 06:08:38;;;;;;;2.25;2.05;;;13.40;99.90;;;;;;5030898;28;20283;-63
2022/04/13 06:11:06;;;;;;;6.80;2.75;;;13.50;99.90;;;;;;5030886;28;20208;-63
2022/04/13 06:13:34;;;;;;;4.30;2.70;;;13.50;99.90;;;;;;5030361;28;20217;-62
2022/04/13 06:16:02;;;;;;;2.65;2.45;;;13.50;99.90;;;;;;5031044;28;20764;-63
2022/04/13 06:18:32;;;;;;;4.18;2.88;;;13.50;99.90;;;;;;5030568;28;20284;-63
2022/04/13 06:21:00;;;;;;;2.47;2.28;;;13.60;99.90;;;;;;5031028;28;20216;-63
2022/04/13 06:23:28;;;;;;;3.63;2.65;;;13.60;99.90;;;;;;5022046;28;20201;-62
2022/04/13 06:25:56;;;;;;;4.95;2.88;;;13.70;99.90;;;;;;5017201;28;20324;-63
2022/04/13 06:28:23;;;;;;;8.75;3.60;;;13.80;99.90;;;;;;5018671;28;21045;-63
2022/04/13 06:30:51;;;;;;;4.55;2.40;;;13.90;99.90;;;;;;5030299;28;20197;-64
2022/04/13 06:33:19;;;;;;;5.57;3.20;;;14.00;99.90;;;;;;5029477;28;20271;-62
2022/04/13 06:35:48;;;;;;;4.03;2.45;;;14.10;99.90;;;;;;5028465;28;20656;-63
2022/04/13 06:38:16;;;;;;;5.38;2.15;;;14.20;99.90;;;;;;5029194;28;20244;-63
2022/04/13 06:40:44;;;;;;;3.47;1.98;;;14.30;99.90;;;;;;5030622;28;20571;-63
2022/04/13 06:43:12;;;;;;;8.27;3.13;;;14.40;99.90;;;;;;5029607;28;20259;-63
2022/04/13 06:45:40;;;;;;;4.97;2.72;;;14.50;99.90;;;;;;5030737;28;20213;-63
2022/04/13 06:48:09;;;;;;;3.17;2.85;;;14.60;99.90;;;;;;5029044;28;20666;-63
2022/04/13 06:50:37;;;;;;;4.50;2.58;;;14.80;99.90;;;;;;5030408;28;20211;-63
2022/04/13 06:53:07;;;;;;;3.38;3.10;;;14.80;99.90;;;;;;5029994;28;20279;-63
2022/04/13 06:55:37;;;;;;;4.00;2.75;;;14.90;99.90;;;;;;5030509;28;20336;-63
2022/04/13 06:58:05;;;;;;;4.30;2.40;;;15.00;99.90;;;;;;5030782;28;20738;-62
2022/04/13 07:00:34;;;;;;;6.80;3.17;;;15.10;99.90;;;;;;5030288;28;20546;-62
2022/04/13 07:03:02;;;;;;;3.40;3.15;;;15.20;99.90;;;;;;5029603;28;20740;-63
2022/04/13 07:05:39;;;;;;;3.50;3.20;;;15.30;99.90;;;;;;5030565;28;20255;-63
2022/04/13 07:08:09;;;;;;;4.45;2.90;;;15.30;99.90;;;;;;5030375;28;20231;-62
2022/04/13 07:10:37;;;;;;;3.95;3.22;;;15.40;99.70;;;;;;5030383;28;20240;-63
2022/04/13 07:13:11;;;;;;;2.90;2.60;;;15.50;99.80;;;;;;5029583;28;20201;-63
2022/04/13 07:15:40;;;;;;;4.57;3.58;;;15.60;99.90;;;;;;5030325;28;20763;-63
2022/04/13 07:18:09;;;;;;;4.35;3.95;;;15.70;99.60;;;;;;5030190;28;20197;-63
2022/04/13 07:20:36;;;;;;;4.10;3.72;;;15.80;98.40;;;;;;5030423;28;20725;-63
2022/04/13 07:23:05;;;;;;;6.07;3.67;;;15.80;97.90;;;;;;5030350;28;20626;-63
2022/04/13 07:25:35;;;;;;;5.75;3.20;;;16.00;98.10;;;;;;5033605;28;20239;-62
2022/04/13 07:28:03;;;;;;;3.58;3.25;;;16.00;98.20;;;;;;5033537;28;20232;-62
2022/04/13 07:30:31;;;;;;;3.38;3.08;;;16.10;98.30;;;;;;5033927;28;20692;-63
2022/04/13 07:33:01;;;;;;;5.47;3.85;;;16.20;98.00;;;;;;5033052;28;20204;-62
2022/04/13 07:35:30;;;;;;;3.67;3.38;;;16.20;98.00;;;;;;5033701;28;20657;-63
2022/04/13 07:37:59;;;;;;;5.78;3.65;;;16.30;96.90;;;;;;5033758;28;20251;-62
2022/04/13 07:40:27;;;;;;;4.45;3.53;;;16.20;97.10;;;;;;5033524;28;20216;-63
2022/04/13 07:42:56;;;;;;;5.30;3.10;;;16.30;97.30;;;;;;5032995;28;20244;-63
2022/04/13 07:45:25;;;;;;;4.40;3.25;;;16.50;97.20;;;;;;5033747;28;20231;-63
2022/04/13 07:47:53;;;;;;;3.35;3.05;;;16.70;97.50;;;;;;5031949;28;20287;-65
2022/04/13 07:50:21;;;;;;;5.97;3.95;;;16.80;96.50;;;;;;5033178;28;20708;-63
2022/04/13 07:52:49;;;;;;;6.55;3.60;;;16.80;96.10;;;;;;5033139;28;20192;-63
2022/04/13 07:55:16;;;;;;;4.63;3.33;;;16.80;96.20;;;;;;5033242;28;20228;-63
2022/04/13 07:57:44;;;;;;;3.88;3.47;;;16.70;96.50;;;;;;5033347;28;20197;-62
2022/04/13 08:00:15;;;;;;;5.65;3.55;;;16.70;96.90;;;;;;5033346;28;20201;-63
2022/04/13 08:02:44;;;;;;;3.03;2.60;;;16.60;96.50;;;;;;5032418;28;20193;-63
2022/04/13 08:05:13;;;;;;;3.38;3.05;;;16.60;96.40;;;;;;5033365;28;20196;-63
2022/04/13 08:07:41;;;;;;;3.95;3.40;;;16.70;96.40;;;;;;5033123;28;20267;-63
2022/04/13 08:10:10;;;;;;;4.55;3.65;;;16.70;95.80;;;;;;5033026;28;20255;-63
2022/04/13 08:12:40;;;;;;;3.85;3.38;;;16.90;96.20;;;;;;5032446;28;20201;-63
2022/04/13 08:15:09;;;;;;;5.03;3.55;;;17.10;96.60;;;;;;5033011;28;20729;-63
2022/04/13 08:17:39;;;;;;;4.72;3.80;;;17.30;96.40;;;;;;5032901;28;20259;-63
2022/04/13 08:20:09;;;;;;;4.05;3.20;;;17.50;96.30;;;;;;5032718;28;20200;-63
2022/04/13 08:22:37;;;;;;;5.00;3.17;;;17.70;95.10;;;;;;5032160;28;20736;-63
2022/04/13 08:25:06;;;;;;;7.03;3.33;;;17.80;94.70;;;;;;5032833;28;20204;-63
2022/04/13 08:27:34;;;;;;;4.20;3.20;;;18.00;95.30;;;;;;5032656;28;20243;-64
2022/04/13 08:30:01;;;;;;;4.68;3.50;;;18.20;93.80;;;;;;5032339;28;20611;-63
2022/04/13 08:32:29;;;;;;;3.58;3.28;;;18.30;94.20;;;;;;5032090;28;20201;-63
2022/04/13 08:34:58;;;;;;;3.95;2.90;;;18.50;93.10;;;;;;5032811;28;20693;-63
2022/04/13 08:37:26;;;;;;;4.45;3.72;;;18.80;93.30;;;;;;5033084;28;20247;-63
2022/04/13 08:39:54;;;;;;;7.45;3.63;;;19.00;92.60;;;;;;5032252;28;20295;-63
2022/04/13 08:42:31;;;;;;;3.85;3.55;;;19.00;92.50;;;;;;5031790;28;20197;-63
2022/04/13 08:45:04;;;;;;;5.38;4.00;;;19.20;92.80;;;;;;5032545;28;20645;-63
2022/04/13 08:47:38;;;;;;;5.03;3.40;;;19.30;92.00;;;;;;5030686;28;20263;-62
2022/04/13 08:50:10;;;;;;;5.40;3.58;;;19.30;91.80;;;;;;5032286;28;20543;-63
2022/04/13 08:52:40;;;;;;;3.75;3.40;;;19.40;91.90;;;;;;5031757;28;20209;-63
2022/04/13 08:55:11;;;;;;;5.75;3.50;;;19.30;92.10;;;;;;5032135;28;20185;-63
2022/04/13 08:57:41;;;;;;;4.72;2.97;;;19.40;92.40;;;;;;5032278;28;20216;-63
2022/04/13 09:00:11;;;;;;;3.17;2.95;;;19.70;91.70;;;;;;5032308;28;20300;-63
2022/04/13 09:02:49;;;;;;;4.53;3.15;;;19.80;91.10;;;;;;5031678;28;20235;-64
2022/04/13 09:05:22;;;;;;;4.65;3.55;;;20.10;90.90;;;;;;5032285;28;20296;-64
2022/04/13 09:07:54;;;;;;;6.75;3.80;;;20.50;91.40;;;;;;5032089;28;20216;-63
2022/04/13 09:10:23;;;;;;;6.03;3.13;;;20.90;91.30;;;;;;5031906;28;20235;-64
2022/04/13 09:12:52;;;;;;;7.03;3.38;;;21.00;89.40;;;;;;5031294;28;20224;-63
2022/04/13 09:15:20;;;;;;;5.78;3.72;;;21.40;90.40;;;;;;5031880;28;20196;-63
2022/04/13 09:17:53;;;;;;;7.97;3.42;;;21.50;88.90;;;;;;5032102;28;20248;-63
2022/04/13 09:20:23;;;;;;;4.25;3.00;;;21.70;90.70;;;;;;5031763;28;20197;-63
2022/04/13 09:22:54;;;;;;;3.45;3.15;;;21.60;88.90;;;;;;5031471;28;20197;-64
2022/04/13 09:25:24;;;;;;;5.03;4.00;;;21.70;89.20;;;;;;5031812;28;20256;-64
2022/04/13 09:27:53;;;;;;;4.93;3.78;;;21.80;88.20;;;;;;5031549;28;20209;-63
2022/04/13 09:30:22;;;;;;;7.00;4.07;;;22.00;88.70;;;;;;5031271;28;20669;-63
2022/04/13 09:32:51;;;;;;;4.50;4.10;;;22.10;90.20;;;;;;5030949;28;20193;-63
2022/04/13 09:35:19;;;;;;;5.63;4.70;;;22.20;88.70;;;;;;5031523;28;20231;-64
2022/04/13 09:37:49;;;;;;;4.85;4.25;;;22.40;87.90;;;;;;5031595;28;20228;-64
2022/04/13 09:40:28;;;;;;;5.25;4.70;;;22.50;87.00;;;;;;5031181;28;20255;-63
2022/04/13 09:43:08;;;;;;;6.50;4.40;;;22.70;86.60;;;;;;5030683;28;20235;-64
2022/04/13 09:45:39;;;;;;;6.28;5.10;;;22.50;86.40;;;;;;5031306;28;20224;-63
2022/04/13 09:48:09;;;;;;;6.20;5.10;;;22.50;87.00;;;;;;5029520;28;20248;-63
2022/04/13 09:50:38;;;;;;;6.03;5.35;;;22.70;87.90;;;;;;5031239;28;20258;-63
2022/04/13 09:53:09;;;;;;;10.15;5.30;;;22.70;88.00;;;;;;5030672;28;20224;-64
2022/04/13 09:58:42;;;;;;;6.22;5.53;;;22.50;87.50;;;;;;4970205;28;20285;-63
2022/04/13 10:01:11;;;;;;;8.00;6.85;;;22.50;88.60;;;;;;4972241;28;20669;-63
2022/04/13 10:03:53;;;;;;;9.48;6.15;;;22.50;87.50;;;;;;4971744;28;20206;-63
2022/04/13 10:06:28;;;;;;;10.40;7.00;;;22.60;88.50;;;;;;4977297;28;20249;-62
2022/04/13 10:09:01;;;;;;;8.10;6.80;;;22.60;88.50;;;;;;4991388;28;20284;-63
2022/04/13 10:11:30;;;;;;;8.63;6.43;;;22.70;87.40;;;;;;4991745;28;20197;-62
2022/04/13 10:14:01;;;;;;;8.52;5.70;;;23.00;86.30;;;;;;4990420;28;20663;-62
2022/04/13 10:16:32;;;;;;;8.27;5.22;;;23.40;87.10;;;;;;4991484;28;20249;-63
2022/04/13 10:19:02;;;;;;;6.18;5.53;;;23.60;86.50;;;;;;4991449;28;20531;-62
2022/04/13 10:21:34;;;;;;;7.47;5.63;;;23.60;87.30;;;;;;4991833;28;20186;-63
2022/04/13 10:24:08;;;;;;;10.10;5.65;;;23.80;86.70;;;;;;4990835;28;20563;-63
2022/04/13 10:26:36;;;;;;;6.95;5.90;;;24.10;86.30;;;;;;4991554;28;20245;-63
2022/04/13 10:29:17;;;;;;;8.98;5.47;;;24.00;85.00;;;;;;4991067;28;20225;-63
2022/04/13 10:32:05;;;;;;;8.23;5.53;;;23.90;85.20;;;;;;4991564;28;20209;-62
2022/04/13 10:34:34;;;;;;;9.65;5.97;;;24.10;87.00;;;;;;4991434;28;20305;-63
2022/04/13 10:37:03;;;;;;;9.68;6.35;;;24.20;86.30;;;;;;4991091;28;20218;-63
2022/04/13 10:39:32;;;;;;;8.43;5.53;;;24.20;86.70;;;;;;4991829;28;20229;-63
2022/04/13 10:42:07;;;;;;;7.75;5.70;;;24.30;86.20;;;;;;4990731;28;20197;-62
2022/04/13 10:44:36;;;;;;;10.32;6.25;;;24.30;86.10;;;;;;4991179;28;20209;-63
2022/04/13 10:47:06;;;;;;;8.18;5.28;;;24.40;85.20;;;;;;4989929;28;20222;-63
2022/04/13 10:49:42;;;;;;;6.60;4.40;;;24.30;86.60;;;;;;4991406;28;20198;-63
2022/04/13 10:52:16;;;;;;;9.77;5.93;;;24.40;86.30;;;;;;4990416;28;20225;-63
2022/04/13 10:54:51;;;;;;;7.95;6.05;;;24.20;85.20;;;;;;4991383;28;20236;-63
2022/04/13 10:57:22;;;;;;;9.65;6.05;;;24.10;86.50;;;;;;4990889;28;20275;-62
2022/04/13 10:59:53;;;;;;;7.22;5.53;;;23.90;84.50;;;;;;4994674;28;20702;-62
2022/04/13 11:02:29;;;;;;;12.55;5.85;;;23.70;84.90;;;;;;4994303;28;20630;-63
2022/04/13 11:04:58;;;;;;;11.77;6.30;;;23.80;85.20;;;;;;4994663;28;20205;-63
2022/04/13 11:07:27;;;;;;;7.38;6.30;;;24.10;84.40;;;;;;4994775;28;20312;-62
2022/04/13 11:10:04;;;;;;;7.25;5.38;;;24.40;85.70;;;;;;4995096;28;20326;-62
2022/04/13 11:12:33;;;;;;;7.45;6.13;;;24.50;84.70;;;;;;4994663;28;20194;-63
2022/04/13 11:15:03;;;;;;;7.97;6.03;;;24.60;84.40;;;;;;4994576;28;20622;-63
2022/04/13 11:17:31;;;;;;;7.75;5.63;;;24.40;83.90;;;;;;4994873;28;20214;-64
2022/04/13 11:20:20;;;;;;;6.47;4.40;;;24.00;83.80;;;;;;4994747;28;20668;-63
2022/04/13 11:23:13;;;;;;;8.35;5.75;;;23.70;86.00;;;;;;4994129;28;20205;-63
2022/04/13 11:25:48;;;;;;;7.22;4.95;;;23.30;85.80;;;;;;4994562;28;20710;-63
2022/04/13 11:28:30;;;;;;;7.75;4.97;;;23.10;86.30;;;;;;4994584;28;20334;-63
2022/04/13 11:31:06;;;;;;;9.70;5.75;;;22.90;86.20;;;;;;4994950;28;20193;-63
2022/04/13 11:33:56;;;;;;;9.65;5.80;;;22.90;86.00;;;;;;4994237;28;20209;-64
2022/04/13 11:36:28;;;;;;;7.55;4.70;;;23.30;84.20;;;;;;4994462;28;20241;-63
2022/04/13 11:39:14;;;;;;;5.60;4.22;;;23.80;82.60;;;;;;4994555;28;20214;-63
2022/04/13 11:41:52;;;;;;;9.38;5.20;;;24.50;82.70;;;;;;4993789;28;20667;-63
2022/04/13 11:44:22;;;;;;;7.05;4.32;;;24.80;79.30;;;;;;4993828;28;20737;-63
2022/04/13 11:46:49;;;;;;;7.95;4.88;;;25.00;80.60;;;;;;4992806;28;20210;-63
2022/04/13 11:49:17;;;;;;;5.60;4.68;;;25.10;77.80;;;;;;4994264;28;20222;-63
2022/04/13 11:51:46;;;;;;;12.27;5.80;;;25.10;81.00;;;;;;4994212;28;20659;-63
2022/04/13 11:54:14;;;;;;;7.57;5.38;;;25.10;79.50;;;;;;4993678;28;20536;-63
2022/04/13 11:56:51;;;;;;;6.10;4.65;;;25.00;79.80;;;;;;4993767;28;20362;-63
2022/04/13 11:59:45;;;;;;;8.27;3.88;;;24.90;80.80;;;;;;4994362;28;20260;-63
2022/04/13 12:02:15;;;;;;;6.30;3.85;;;25.00;80.00;;;;;;4993454;28;20655;-63
2022/04/13 12:04:45;;;;;;;7.07;4.75;;;25.30;77.50;;;;;;4993733;28;20193;-63
2022/04/13 12:07:13;;;;;;;12.25;5.47;;;25.50;79.10;;;;;;4993758;28;20218;-63
2022/04/13 12:09:43;;;;;;;7.57;4.65;;;25.70;79.00;;;;;;4993390;28;20214;-63
2022/04/13 12:12:16;;;;;;;7.05;4.43;;;25.90;78.50;;;;;;4993318;28;20194;-63
2022/04/13 12:14:45;;;;;;;7.53;4.95;;;25.90;77.40;;;;;;4993880;28;20201;-64
2022/04/13 12:17:15;;;;;;;4.80;4.00;;;25.70;78.50;;;;;;4993799;28;20213;-63
2022/04/13 12:19:44;;;;;;;6.20;3.80;;;25.70;78.70;;;;;;4993678;28;20197;-64
2022/04/13 12:22:15;;;;;;;5.70;3.90;;;25.40;76.50;;;;;;4993044;28;20198;-63
2022/04/13 12:24:59;;;;;;;5.28;3.50;;;25.30;76.40;;;;;;4993505;28;20679;-64
2022/04/13 12:27:28;;;;;;;3.60;2.75;;;25.00;74.30;;;;;;4993518;28;20305;-63
2022/04/13 12:30:12;;;;;;;7.75;3.00;;;25.00;75.70;;;;;;4993147;28;20214;-63
2022/04/13 12:32:45;;;;;;;4.25;3.85;;;24.60;75.30;;;;;;4992789;28;20746;-64
2022/04/13 12:35:14;;;;;;;4.93;2.38;;;24.70;76.70;;;;;;4993591;28;20202;-63
2022/04/13 12:37:50;;;;;;;6.05;2.63;;;24.50;74.60;;;;;;4993489;28;20293;-63
2022/04/13 12:40:19;;;;;;;3.83;1.88;;;24.20;75.50;;;;;;4993104;28;20237;-63
2022/04/13 12:42:51;;;;;;;3.00;2.55;;;24.20;73.40;;;;;;4992551;28;20206;-63
2022/04/13 12:45:19;;;;;;;4.25;2.72;;;24.10;74.30;;;;;;4993244;28;20264;-63
2022/04/13 12:47:47;;;;;;;2.85;2.35;;;24.20;72.50;;;;;;4991851;28;20700;-63
2022/04/13 12:50:15;;;;;;;3.45;2.10;;;24.50;74.40;;;;;;4992926;28;20280;-63
2022/04/13 12:52:43;;;;;;;3.45;2.30;;;25.00;74.10;;;;;;4992335;28;20198;-63
2022/04/13 12:55:11;;;;;;;4.13;1.98;;;25.40;73.70;;;;;;4993207;28;20697;-63
2022/04/13 12:57:39;;;;;;;3.10;2.15;;;25.90;73.00;;;;;;4993071;28;20249;-63
2022/04/13 13:00:10;;;;;;;5.18;1.90;;;26.50;72.40;;;;;;4992799;28;20602;-63
2022/04/13 13:02:38;;;;;;;6.38;2.30;;;26.70;71.70;;;;;;4992300;28;20664;-63